메인 페이지
METAR-TAF:

METAR-TAF

공항 :

Fairford, 잉글랜드

위도: 51-41N, 경도: 001-47W, 고도: 87m

현재 날씨관측

예보는 54분 전, 15:55시(UTC)에 발표되었습니다.
무풍
온도 24°C
습도 50%
기압 1019 hPa
시정 10km 이상
고도 5000ft 상공 구름 조금
고도 6000ft 상공 구름 많음
약한이슬비

METAR: EGVA 231555Z AUTO 00000KT 9999 -DZ FEW050 BKN060 24/13 A3010 RMK AO2 DZB1455 SLP195 P0000 T02360126 $

시각: 17:49 (16:49 UTC)

예보

예보는 4 시간 8분 전, 12:41시(UTC)에 발표되었습니다.
예보 대상 시간: 23일 12시부터 24일 18시까지 (UTC)
9kt
시정 10km 이상
고도 3000ft 상공 구름 많음
고도 5000ft 상공 구름 많음
일시적
23일 12시부터 23일 14시까지 (UTC)
고도 2500ft 상공 구름 많음
전환 중
23일 20시부터 23일 21시까지 (UTC)
6kt
시정 10km 이상
고도 3000ft 상공 구름 보통
고도 4000ft 상공 구름 많음
전환 중
24일 03시부터 24일 04시까지 (UTC)
서남서6kt
시정: 3200m
고도 4000ft 상공 구름 많음
박무
일시적
24일 04시부터 24일 07시까지 (UTC)
시정: 0800m
고도 500ft 상공 구름 많음
안개
일시적
24일 07시부터 24일 09시까지 (UTC)
시정: 6000m
고도 1000ft 상공 구름 많음
박무
전환 중
24일 07시부터 24일 08시까지 (UTC)
남서6kt
시정 10km 이상
고도 2000ft 상공 구름 조금
고도 5000ft 상공 구름 보통

TAF: EGVA 231241Z 2312/2418 36009KT 9999 BKN030 BKN050 QNH3006INS TEMPO 2312/2314 BKN025 BECMG 2320/2321 27006KT 9999 SCT030 BKN040 QNH3013INS BECMG 2403/2404 24006KT 3200 BR BKN040 QNH3012INS TEMPO 2404/2407 0800 FG BKN005 TEMPO 2407/2409 6000 BR BKN010 BECMG 2407/2408 22006KT 9999 NSW FEW020 SCT050 QNH3011INS TX22/2314Z TN14/2403Z

4,000개 이상의 공항 관측 자료 및 예보 (METAR 및 TAF 보고).

지도상에서 검색 가능한 기상관측소가 노란 점과 빨간 점으로 표시되어 있습니다.

기상관측소 명을 보려면 표시 위로 마우스를 이동하세요.

날씨 관측과 예보를 보려면 클릭하세요.

지도 변경 : 확대하려면 엑스 표시가 있는 녹색 버튼, 축소하려면 빼기 표시가 있는 녹색 버튼, 다음 페이지의 지도를 보려면 녹색 화살표를 클릭하세요.


METAR-TAF: